Time;durP1;ratioP1;P1;durP2;ratioP2;P2;SDS_P1;SDS_P2;PMS_P1;PMS_P2;Temp;Humidity;BMP_temperature;BMP_pressure;BME280_temperature;BME280_humidity;BME280_pressure;Samples;Min_cycle;Max_cycle;Signal;HPM_P1;HPM_P2
2022/11/07 00:00:40;;;;;;;2.28;1.42;;;;;;;12.40;66.45;100716.41;5159725;27;20054;-59
2022/11/07 00:03:14;;;;;;;3.22;1.48;;;;;;;12.41;66.17;100719.94;5161826;27;20123;-59
2022/11/07 00:05:42;;;;;;;4.55;1.73;;;;;;;12.41;66.38;100717.25;5160353;27;20047;-59
2022/11/07 00:08:09;;;;;;;3.53;1.77;;;;;;;12.40;66.54;100719.13;5161400;27;20043;-59
2022/11/07 00:10:37;;;;;;;4.38;2.13;;;;;;;12.41;66.19;100714.53;5160981;27;20053;-59
2022/11/07 00:13:05;;;;;;;6.95;1.88;;;;;;;12.39;66.08;100728.25;5164124;27;20058;-59
2022/11/07 00:15:32;;;;;;;4.68;2.13;;;;;;;12.39;66.17;100728.25;5164517;27;20053;-59
2022/11/07 00:18:01;;;;;;;7.57;2.22;;;;;;;12.39;66.32;100725.56;5163630;27;20153;-59
2022/11/07 00:20:29;;;;;;;7.03;1.90;;;;;;;12.36;66.45;100726.84;5159155;27;20058;-58
2022/11/07 00:22:57;;;;;;;6.10;2.08;;;;;;;12.37;66.15;100727.69;5164516;27;20068;-58
2022/11/07 00:25:25;;;;;;;5.18;1.95;;;;;;;12.36;66.18;100729.56;5161113;27;20047;-58
2022/11/07 00:27:52;;;;;;;7.05;2.10;;;;;;;12.37;66.02;100730.38;5166289;27;20046;-59
2022/11/07 00:30:20;;;;;;;3.60;1.70;;;;;;;12.36;66.46;100726.84;5163939;27;20046;-59
2022/11/07 00:32:48;;;;;;;4.78;1.92;;;;;;;12.37;66.22;100733.06;5178684;27;20049;-58
2022/11/07 00:35:17;;;;;;;6.00;1.92;;;;;;;12.36;66.21;100734.94;5169501;27;20046;-59
2022/11/07 00:37:44;;;;;;;5.93;1.85;;;;;;;12.37;66.39;100730.38;5182563;27;20046;-58
2022/11/07 00:40:12;;;;;;;7.05;1.73;;;;;;;12.36;66.17;100739.50;5164674;27;20047;-59
2022/11/07 00:42:40;;;;;;;6.53;2.40;;;;;;;12.35;66.39;100730.59;5167280;27;20061;-59
2022/11/07 00:45:10;;;;;;;6.72;2.15;;;;;;;12.35;66.29;100732.47;5156039;27;20066;-58
2022/11/07 00:47:38;;;;;;;4.47;2.03;;;;;;;12.34;66.12;100730.84;5167869;27;20538;-58
2022/11/07 00:50:07;;;;;;;3.50;1.90;;;;;;;12.33;66.32;100732.72;5168034;27;20056;-59
2022/11/07 00:52:36;;;;;;;6.22;1.85;;;;;;;12.33;66.48;100730.03;5165736;27;20086;-59
2022/11/07 00:55:04;;;;;;;5.43;2.00;;;;;;;12.34;66.46;100731.66;5160234;27;20051;-59
2022/11/07 00:57:32;;;;;;;6.07;1.70;;;;;;;12.35;66.32;100737.88;5163975;27;20043;-59
2022/11/07 01:00:00;;;;;;;5.47;2.10;;;;;;;12.35;66.22;100737.88;5166638;27;20065;-59
2022/11/07 01:02:27;;;;;;;4.25;1.90;;;;;;;12.34;66.29;100744.31;5154161;27;20057;-59
2022/11/07 01:05:10;;;;;;;4.20;2.15;;;;;;;12.35;66.58;100749.47;5163853;27;20077;-59
2022/11/07 01:07:40;;;;;;;5.85;2.00;;;;;;;12.35;66.39;100754.03;5164573;27;20047;-58
2022/11/07 01:10:08;;;;;;;6.10;1.85;;;;;;;12.37;66.10;100754.63;5154715;27;20450;-58
2022/11/07 01:12:36;;;;;;;4.40;1.73;;;;;;;12.36;66.32;100756.50;5151605;27;20066;-58
2022/11/07 01:15:05;;;;;;;3.67;1.70;;;;;;;12.38;66.14;100761.66;5166285;27;20066;-59
2022/11/07 01:17:33;;;;;;;4.57;1.98;;;;;;;12.36;66.38;100751.13;5152207;27;20053;-59
2022/11/07 01:20:00;;;;;;;5.20;1.92;;;;;;;12.35;66.48;100760.25;5163998;27;20043;-59
2022/11/07 01:22:28;;;;;;;4.65;2.25;;;;;;;12.34;66.60;100774.78;5168104;27;20050;-59
2022/11/07 01:24:57;;;;;;;4.63;1.60;;;;;;;12.35;66.11;100773.72;5168286;27;20050;-59
2022/11/07 01:27:25;;;;;;;3.50;1.80;;;;;;;12.37;66.08;100784.28;5160799;27;20034;-59
2022/11/07 01:29:53;;;;;;;4.75;2.03;;;;;;;12.36;66.55;100791.53;5166213;27;20045;-59
2022/11/07 01:32:20;;;;;;;6.50;1.77;;;;;;;12.36;66.49;100782.63;5167955;27;20042;-59
2022/11/07 01:34:48;;;;;;;10.25;1.92;;;;;;;12.29;66.42;100771.16;5167048;27;20049;-59
2022/11/07 01:37:16;;;;;;;4.75;1.88;;;;;;;12.34;66.29;100788.25;5161744;27;20046;-58
2022/11/07 01:39:43;;;;;;;4.45;1.48;;;;;;;12.35;66.45;100784.50;5163252;27;20110;-59
2022/11/07 01:42:13;;;;;;;5.13;1.77;;;;;;;12.33;66.25;100786.63;5153478;27;20096;-60
2022/11/07 01:44:57;;;;;;;4.47;1.83;;;;;;;12.32;66.47;100779.59;5161713;27;20066;-59
2022/11/07 01:47:29;;;;;;;5.85;1.83;;;;;;;12.33;66.66;100780.41;5164255;27;20047;-59
2022/11/07 01:49:59;;;;;;;7.13;1.67;;;;;;;12.33;66.64;100775.00;5161589;27;20047;-59
2022/11/07 01:52:31;;;;;;;4.18;1.70;;;;;;;12.33;66.65;100781.22;5165411;27;20134;-59
2022/11/07 01:55:04;;;;;;;3.80;1.88;;;;;;;12.33;66.65;100773.13;5156873;27;20054;-58
2022/11/07 01:57:36;;;;;;;5.60;1.70;;;;;;;12.33;66.54;100777.72;5166913;27;20047;-58
2022/11/07 02:00:08;;;;;;;6.15;2.10;;;;;;;12.32;66.22;100786.84;5156223;27;20047;-59
2022/11/07 02:02:36;;;;;;;2.72;1.42;;;;;;;12.31;66.40;100782.50;5163720;27;20051;-59
2022/11/07 02:05:06;;;;;;;3.80;1.67;;;;;;;12.32;67.00;100786.84;5163506;27;20121;-60
2022/11/07 02:07:35;;;;;;;4.57;1.70;;;;;;;12.31;66.49;100783.34;5165917;27;20046;-58
2022/11/07 02:10:04;;;;;;;3.30;1.70;;;;;;;12.30;66.83;100779.00;5166818;27;20052;-59
2022/11/07 02:12:33;;;;;;;5.82;1.70;;;;;;;12.31;66.49;100783.34;5157533;27;20057;-59
2022/11/07 02:15:01;;;;;;;5.10;1.92;;;;;;;12.30;66.48;100776.31;5166264;27;20061;-59
2022/11/07 02:17:29;;;;;;;5.95;1.88;;;;;;;12.31;66.39;100786.03;5154735;27;20146;-59
2022/11/07 02:19:57;;;;;;;5.10;1.45;;;;;;;12.31;66.39;100791.41;5163225;27;20088;-59
2022/11/07 02:22:35;;;;;;;4.45;1.60;;;;;;;12.31;66.94;100780.63;5166527;27;20449;-59
2022/11/07 02:25:08;;;;;;;6.97;2.20;;;;;;;12.30;66.70;100779.00;5158006;27;20043;-59
2022/11/07 02:27:38;;;;;;;7.35;2.00;;;;;;;12.30;66.81;100786.25;5163139;27;20047;-59
2022/11/07 02:30:09;;;;;;;3.35;1.67;;;;;;;12.29;66.72;100785.44;5165210;27;20070;-59
2022/11/07 02:32:37;;;;;;;6.05;1.88;;;;;;;12.27;66.62;100781.34;5163259;27;20038;-59
2022/11/07 02:35:07;;;;;;;5.45;1.90;;;;;;;12.27;67.06;100781.34;5165735;27;20046;-59
2022/11/07 02:37:38;;;;;;;7.93;1.95;;;;;;;12.27;67.06;100784.84;5158659;27;20061;-59
2022/11/07 02:40:10;;;;;;;4.85;2.08;;;;;;;12.27;67.24;100784.03;5167017;27;20053;-59
2022/11/07 02:42:45;;;;;;;5.88;2.53;;;;;;;12.28;66.71;100782.97;5163130;27;20074;-59
2022/11/07 02:45:14;;;;;;;7.38;2.10;;;;;;;12.28;67.05;100778.41;5165349;27;20057;-59
2022/11/07 02:47:42;;;;;;;4.93;2.05;;;;;;;12.29;66.65;100782.75;5162723;27;20065;-60
2022/11/07 02:50:12;;;;;;;4.43;1.90;;;;;;;12.29;66.88;100779.22;5162505;27;20081;-59
2022/11/07 02:52:41;;;;;;;7.40;2.38;;;;;;;12.30;66.74;100779.00;5164990;27;20042;-59
2022/11/07 02:55:11;;;;;;;4.22;2.20;;;;;;;12.30;66.75;100778.19;5163794;27;20052;-60
2022/11/07 02:57:39;;;;;;;8.70;2.67;;;;;;;12.20;66.66;100770.69;5163213;27;20046;-59
2022/11/07 03:00:10;;;;;;;6.82;1.80;;;;;;;12.28;67.04;100775.72;5155843;27;20047;-59
2022/11/07 03:02:38;;;;;;;6.38;1.95;;;;;;;12.29;66.95;100776.53;5159551;27;20047;-59
2022/11/07 03:05:07;;;;;;;5.45;2.13;;;;;;;12.29;66.87;100774.66;5145859;27;20051;-59
2022/11/07 03:07:34;;;;;;;4.47;1.70;;;;;;;12.29;66.70;100771.97;5159966;27;20043;-59
2022/11/07 03:10:02;;;;;;;6.25;1.80;;;;;;;12.30;66.77;100780.88;5162979;27;20052;-60
2022/11/07 03:12:31;;;;;;;4.78;2.28;;;;;;;12.28;66.76;100789.19;5164487;27;20050;-59
2022/11/07 03:14:59;;;;;;;4.20;1.90;;;;;;;12.29;66.83;100790.84;5151619;27;20069;-60
2022/11/07 03:17:27;;;;;;;5.88;2.28;;;;;;;12.30;66.94;100788.97;5165548;27;20053;-60
2022/11/07 03:19:54;;;;;;;4.60;1.67;;;;;;;12.29;66.90;100781.94;5164452;27;20049;-59
2022/11/07 03:22:22;;;;;;;3.58;1.60;;;;;;;12.31;66.75;100782.50;5185544;27;20057;-59
2022/11/07 03:24:50;;;;;;;11.00;3.03;;;;;;;12.30;66.68;100788.97;5160840;27;20043;-59
2022/11/07 03:27:18;;;;;;;6.78;1.80;;;;;;;12.31;67.14;100787.91;5164083;27;20047;-60
2022/11/07 03:29:47;;;;;;;4.93;1.73;;;;;;;12.30;67.02;100784.38;5165557;27;20046;-59
2022/11/07 03:32:14;;;;;;;7.97;1.70;;;;;;;12.31;67.09;100787.91;5164426;27;20047;-59
2022/11/07 03:34:42;;;;;;;9.77;1.95;;;;;;;12.30;66.98;100792.47;5157441;27;20050;-59
2022/11/07 03:37:10;;;;;;;5.65;1.95;;;;;;;12.31;67.14;100785.22;5163244;27;20050;-59
2022/11/07 03:39:37;;;;;;;6.40;1.88;;;;;;;12.26;66.90;100777.81;5149813;27;20043;-59
2022/11/07 03:42:05;;;;;;;7.05;2.42;;;;;;;12.30;66.91;100781.69;5159553;27;20054;-59
2022/11/07 03:44:33;;;;;;;8.00;1.90;;;;;;;12.29;67.05;100785.44;5164691;27;20046;-59
2022/11/07 03:47:02;;;;;;;6.30;1.95;;;;;;;12.30;66.91;100788.97;5162886;27;20050;-59
2022/11/07 03:49:30;;;;;;;6.18;2.05;;;;;;;12.28;66.69;100788.38;5163981;27;20047;-59
2022/11/07 03:51:57;;;;;;;6.40;2.30;;;;;;;12.28;67.10;100789.19;5162525;27;20415;-59
2022/11/07 03:54:25;;;;;;;5.25;1.58;;;;;;;12.29;66.90;100782.75;5157445;27;20043;-59
2022/11/07 03:56:53;;;;;;;9.07;2.40;;;;;;;12.27;67.05;100779.47;5158026;27;20054;-59
2022/11/07 03:59:21;;;;;;;6.13;2.15;;;;;;;12.26;67.21;100785.91;5165328;27;20054;-59
2022/11/07 04:01:48;;;;;;;7.20;2.63;;;;;;;12.25;66.99;100786.97;5158565;27;20053;-59
2022/11/07 04:04:18;;;;;;;9.15;2.35;;;;;;;12.26;67.34;100777.81;5163200;27;20103;-59
2022/11/07 04:06:45;;;;;;;7.22;2.97;;;;;;;12.26;67.24;100780.53;5166394;27;20054;-59
2022/11/07 04:09:13;;;;;;;9.85;2.15;;;;;;;12.27;67.10;100781.34;5168266;27;20042;-59
2022/11/07 04:17:21;;;;;;;4.80;1.60;;;;;;;12.28;66.99;100783.81;5143519;27;20144;-59
2022/11/07 04:19:53;;;;;;;7.20;2.00;;;;;;;12.27;67.18;100784.03;5143813;27;20043;-59
2022/11/07 04:22:22;;;;;;;8.52;3.00;;;;;;;12.26;67.05;100788.59;5145365;27;20053;-59
2022/11/07 04:24:50;;;;;;;4.72;1.60;;;;;;;12.28;67.03;100782.97;5145251;27;20494;-59
2022/11/07 04:30:18;;;;;;;6.40;2.15;;;;;;;12.26;67.54;100771.63;5146695;27;20048;-59
2022/11/07 04:32:47;;;;;;;7.55;2.38;;;;;;;12.26;67.46;100780.53;5147467;27;20051;-59
2022/11/07 04:35:17;;;;;;;9.35;2.15;;;;;;;12.26;67.27;100782.41;5144592;27;20050;-59
2022/11/07 04:37:45;;;;;;;7.85;2.10;;;;;;;12.25;67.52;100786.97;5145835;27;20448;-59
2022/11/07 04:40:13;;;;;;;7.03;2.15;;;;;;;12.24;67.29;100795.28;5147500;27;20051;-59
2022/11/07 04:42:41;;;;;;;8.07;2.05;;;;;;;12.25;67.19;100794.22;5148685;27;20062;-59
2022/11/07 04:45:10;;;;;;;5.43;1.73;;;;;;;12.25;67.20;100797.75;5141187;27;20053;-59
2022/11/07 04:47:38;;;;;;;7.97;2.42;;;;;;;12.25;67.10;100795.06;5144931;27;20154;-59
2022/11/07 04:50:10;;;;;;;10.68;2.05;;;;;;;12.27;67.20;100794.81;5147814;27;20061;-59
2022/11/07 04:52:39;;;;;;;8.30;2.10;;;;;;;12.26;67.22;100785.91;5143088;27;20043;-59
2022/11/07 04:55:10;;;;;;;10.20;2.30;;;;;;;12.27;67.55;100795.63;5145693;27;20047;-59
2022/11/07 04:57:37;;;;;;;5.50;2.30;;;;;;;12.24;67.28;100784.50;5136621;27;20361;-59
2022/11/07 05:00:07;;;;;;;9.80;2.30;;;;;;;12.27;67.36;100784.84;5144389;27;20043;-59
2022/11/07 05:02:34;;;;;;;6.20;1.98;;;;;;;12.25;67.42;100786.97;5147367;27;20047;-59
2022/11/07 05:05:02;;;;;;;9.77;2.00;;;;;;;12.27;67.30;100789.44;5144671;27;20039;-59
2022/11/07 05:07:30;;;;;;;5.15;1.80;;;;;;;12.27;67.28;100787.56;5144711;27;20055;-59
2022/11/07 05:09:59;;;;;;;11.52;2.67;;;;;;;12.29;67.45;100790.00;5140456;27;20043;-59
2022/11/07 05:12:26;;;;;;;6.93;2.17;;;;;;;12.29;67.29;100800.78;5151067;27;20066;-60
2022/11/07 05:14:54;;;;;;;6.20;2.00;;;;;;;12.28;67.33;100797.28;5160872;27;20043;-59
2022/11/07 05:17:22;;;;;;;9.27;2.40;;;;;;;12.29;67.43;100798.09;5165643;27;20046;-60
2022/11/07 05:19:54;;;;;;;9.70;2.17;;;;;;;12.30;67.44;100799.75;5162153;27;20179;-59
2022/11/07 05:25:09;;;;;;;7.88;2.05;;;;;;;12.29;67.06;100800.78;5126532;27;20038;-60
2022/11/07 05:27:37;;;;;;;9.38;2.78;;;;;;;12.28;67.43;100802.66;5163182;27;20057;-59
2022/11/07 05:30:05;;;;;;;9.05;3.30;;;;;;;12.30;67.25;100792.47;5163457;27;20046;-59
2022/11/07 05:32:36;;;;;;;6.70;1.83;;;;;;;12.29;67.36;100800.78;5167709;27;20043;-59
2022/11/07 05:35:05;;;;;;;9.98;2.60;;;;;;;12.33;66.93;100797.41;5164950;27;20042;-59
2022/11/07 05:37:33;;;;;;;10.23;2.42;;;;;;;12.30;66.98;100805.94;5164533;27;20047;-59
2022/11/07 05:40:00;;;;;;;12.35;2.35;;;;;;;12.19;67.47;100784.38;5165464;27;20050;-60
2022/11/07 05:42:29;;;;;;;9.07;2.40;;;;;;;12.27;67.66;100801.03;5165794;27;20061;-59
2022/11/07 05:44:57;;;;;;;7.03;2.15;;;;;;;12.27;67.27;100802.91;5167070;27;20515;-61
2022/11/07 05:47:25;;;;;;;6.22;2.00;;;;;;;12.26;67.35;100807.47;5158433;27;20067;-59
2022/11/07 05:49:52;;;;;;;8.32;2.15;;;;;;;12.26;67.48;100803.94;5165732;27;20050;-59
2022/11/07 05:52:20;;;;;;;4.90;1.83;;;;;;;12.27;67.23;100798.34;5160853;27;20043;-61
2022/11/07 05:54:48;;;;;;;10.23;2.65;;;;;;;12.27;67.17;100809.09;5159185;27;20043;-59
2022/11/07 05:57:15;;;;;;;8.38;2.50;;;;;;;12.27;67.16;100808.28;5160879;27;20517;-60
2022/11/07 05:59:44;;;;;;;8.10;2.00;;;;;;;12.28;67.73;100801.84;5163758;27;20046;-60
2022/11/07 06:02:12;;;;;;;9.32;2.00;;;;;;;12.30;67.68;100805.13;5159538;27;20043;-60
2022/11/07 06:04:40;;;;;;;9.73;2.13;;;;;;;12.28;67.18;100805.34;5162546;27;20047;-59
2022/11/07 06:07:08;;;;;;;11.52;2.47;;;;;;;12.29;67.17;100798.91;5159501;27;20046;-59
2022/11/07 06:09:35;;;;;;;5.65;2.00;;;;;;;12.28;67.30;100797.28;5164646;27;20039;-60
2022/11/07 06:12:03;;;;;;;7.43;2.10;;;;;;;12.21;67.55;100788.50;5164629;27;20050;-61
2022/11/07 06:14:31;;;;;;;9.48;2.35;;;;;;;12.56;66.54;100799.25;5152779;27;20047;-60
2022/11/07 06:17:00;;;;;;;8.77;2.28;;;;;;;12.42;67.03;100805.13;5160939;27;20127;-59
2022/11/07 06:19:28;;;;;;;7.38;2.33;;;;;;;12.50;67.28;100807.47;5158164;27;20060;-59
2022/11/07 06:21:55;;;;;;;7.82;2.30;;;;;;;12.39;67.09;100801.03;5157092;27;20046;-60
2022/11/07 06:24:23;;;;;;;11.48;2.20;;;;;;;12.37;67.51;100806.66;5160271;27;20043;-60
2022/11/07 06:26:51;;;;;;;8.50;2.22;;;;;;;12.34;67.33;100814.38;5166312;27;20066;-60
2022/11/07 06:29:19;;;;;;;7.78;2.42;;;;;;;12.60;67.24;100821.19;5161544;27;20043;-59
2022/11/07 06:31:46;;;;;;;12.35;2.25;;;;;;;12.44;67.37;100828.09;5162271;27;20054;-60
2022/11/07 06:34:15;;;;;;;10.15;2.47;;;;;;;12.37;67.51;100817.44;5163558;27;20061;-60
2022/11/07 06:36:43;;;;;;;14.75;3.15;;;;;;;12.58;67.61;100823.28;5165270;27;20141;-60
2022/11/07 06:39:16;;;;;;;10.70;2.13;;;;;;;12.46;67.62;100820.59;5165940;27;20043;-59
2022/11/07 06:41:44;;;;;;;9.20;2.00;;;;;;;12.47;67.88;100830.31;5162093;27;20043;-59
2022/11/07 06:44:11;;;;;;;12.05;2.17;;;;;;;12.59;67.77;100828.44;5155862;27;20046;-59
2022/11/07 06:46:39;;;;;;;11.25;2.40;;;;;;;12.50;67.41;100823.66;4798981;27;9999972;-59
2022/11/07 06:49:07;;;;;;;9.55;2.33;;;;;;;12.45;68.10;100829.75;5161226;27;20045;-59
2022/11/07 06:51:36;;;;;;;12.95;3.13;;;;;;;12.47;68.23;100822.22;5155400;27;20072;-60
2022/11/07 06:54:04;;;;;;;8.02;2.55;;;;;;;12.46;68.18;100838.66;5156878;27;20039;-60
2022/11/07 06:56:31;;;;;;;9.45;2.45;;;;;;;12.45;68.02;100840.53;5162530;27;20141;-59
2022/11/07 06:58:59;;;;;;;12.88;3.22;;;;;;;12.40;68.14;100843.09;5157874;27;20050;-60
2022/11/07 07:01:27;;;;;;;6.15;3.15;;;;;;;12.42;67.85;100846.38;5160919;27;20519;-61
2022/11/07 07:03:55;;;;;;;6.13;2.15;;;;;;;12.40;68.30;100851.19;5159312;27;20091;-60
2022/11/07 07:06:22;;;;;;;7.85;2.58;;;;;;;12.43;67.97;100850.72;5171081;27;20055;-59
2022/11/07 07:08:51;;;;;;;9.40;2.08;;;;;;;12.42;67.98;100848.25;5159168;27;20107;-59
2022/11/07 07:11:19;;;;;;;9.57;2.60;;;;;;;12.43;68.40;100856.09;5160750;27;20054;-59
2022/11/07 07:13:47;;;;;;;11.55;2.38;;;;;;;12.39;69.35;100858.44;5158400;27;20140;-59
2022/11/07 07:16:15;;;;;;;7.45;2.08;;;;;;;12.41;68.75;100862.78;5161826;27;20453;-59
2022/11/07 07:18:42;;;;;;;10.95;2.50;;;;;;;12.42;68.91;100859.03;5155803;27;20051;-59
2022/11/07 07:21:14;;;;;;;7.78;2.00;;;;;;;12.42;68.81;100873.34;5159348;27;20050;-58
2022/11/07 07:23:41;;;;;;;16.50;3.30;;;;;;;12.46;68.11;100869.13;5156047;27;20054;-59
2022/11/07 07:26:13;;;;;;;9.18;2.35;;;;;;;12.45;68.73;100877.44;5145622;27;20051;-59
2022/11/07 07:28:41;;;;;;;9.90;2.10;;;;;;;12.48;68.41;100888.56;5146910;27;20049;-59
2022/11/07 07:31:18;;;;;;;8.07;2.00;;;;;;;12.41;68.75;100882.47;5162030;27;20047;-59
2022/11/07 07:33:47;;;;;;;10.57;2.40;;;;;;;12.50;68.33;100888.34;5159270;27;20042;-59
2022/11/07 07:36:15;;;;;;;10.85;2.13;;;;;;;12.48;68.59;100893.97;5152614;27;20050;-61
2022/11/07 07:38:47;;;;;;;7.43;1.83;;;;;;;12.49;68.86;100901.00;5162905;27;20506;-60
2022/11/07 07:41:17;;;;;;;12.73;2.05;;;;;;;12.50;68.61;100894.56;5164537;27;20047;-64
2022/11/07 07:43:45;;;;;;;8.93;2.47;;;;;;;12.45;68.58;100893.59;5165841;27;20046;-62
2022/11/07 07:46:15;;;;;;;8.85;3.22;;;;;;;12.50;68.62;100901.81;5162984;27;20066;-62
2022/11/07 07:48:43;;;;;;;10.00;2.70;;;;;;;12.49;68.54;100903.69;5164582;27;20051;-61
2022/11/07 07:51:10;;;;;;;7.03;1.80;;;;;;;12.52;68.45;100899.72;5163106;27;20061;-62
2022/11/07 07:53:38;;;;;;;10.02;2.50;;;;;;;12.51;68.65;100906.97;5165709;27;20053;-62
2022/11/07 07:56:06;;;;;;;10.98;3.70;;;;;;;12.68;68.10;100912.50;5169836;27;20058;-61
2022/11/07 07:58:35;;;;;;;9.60;2.47;;;;;;;12.56;68.40;100908.97;5165579;27;20065;-61
2022/11/07 08:01:08;;;;;;;8.48;1.98;;;;;;;12.55;68.92;100912.72;5167323;27;20042;-62
2022/11/07 08:03:37;;;;;;;9.45;1.90;;;;;;;12.54;68.81;100908.38;5165803;27;20059;-61
2022/11/07 08:06:25;;;;;;;10.90;2.50;;;;;;;12.51;68.51;100908.84;5163587;27;20046;-62
2022/11/07 08:08:53;;;;;;;8.85;2.00;;;;;;;12.49;68.79;100911.78;5159375;27;20046;-61
2022/11/07 08:11:21;;;;;;;8.40;2.58;;;;;;;12.49;69.13;100914.47;4805638;27;10000621;-62
2022/11/07 08:13:50;;;;;;;10.55;3.35;;;;;;;12.50;68.94;100907.22;5162125;27;20145;-62
2022/11/07 08:16:17;;;;;;;11.05;2.05;;;;;;;12.49;68.76;100910.97;5161673;27;20053;-62
2022/11/07 08:18:45;;;;;;;8.70;2.05;;;;;;;12.51;68.79;100908.84;5154845;27;20516;-62
2022/11/07 08:21:13;;;;;;;8.02;2.13;;;;;;;12.52;68.73;100913.19;5161793;27;20043;-61
2022/11/07 08:23:40;;;;;;;6.97;1.90;;;;;;;12.48;69.14;100912.00;5159884;27;20046;-62
2022/11/07 08:26:08;;;;;;;5.15;1.50;;;;;;;12.51;68.71;100911.53;5161791;27;20074;-62
2022/11/07 08:28:36;;;;;;;11.60;2.15;;;;;;;12.51;68.87;100912.38;5152713;27;20162;-62
2022/11/07 08:31:07;;;;;;;9.00;2.35;;;;;;;12.50;69.24;100924.19;5160067;27;20042;-62
2022/11/07 08:33:35;;;;;;;8.43;2.20;;;;;;;12.59;69.51;100914.72;5159201;27;20042;-61
2022/11/07 08:36:05;;;;;;;6.15;2.58;;;;;;;12.57;69.33;100919.53;5159284;27;20050;-61
2022/11/07 08:38:34;;;;;;;11.32;2.10;;;;;;;12.63;69.35;100918.59;5161189;27;20056;-64
2022/11/07 08:41:03;;;;;;;7.10;1.98;;;;;;;12.59;69.10;100925.50;5154545;27;20050;-62
2022/11/07 08:43:31;;;;;;;6.88;1.83;;;;;;;12.57;69.01;100924.09;5157891;27;20152;-61
2022/11/07 08:45:58;;;;;;;10.00;2.13;;;;;;;12.60;69.44;100932.53;5160895;27;20043;-64
2022/11/07 08:48:27;;;;;;;7.55;2.28;;;;;;;12.63;69.13;100926.69;5163311;27;20050;-66
2022/11/07 08:50:56;;;;;;;8.50;2.13;;;;;;;12.79;68.54;100929.75;5165427;27;20043;-63
2022/11/07 08:53:26;;;;;;;5.05;2.30;;;;;;;12.97;68.32;100935.84;5159011;27;20041;-63
2022/11/07 08:56:00;;;;;;;7.63;2.08;;;;;;;13.17;67.35;100940.88;5165721;27;20352;-63
2022/11/07 08:58:28;;;;;;;6.68;1.90;;;;;;;13.38;66.81;100938.63;5155759;27;20050;-63
2022/11/07 09:00:57;;;;;;;6.22;2.72;;;;;;;13.54;65.85;100946.81;5166314;27;20039;-63
2022/11/07 09:03:25;;;;;;;10.60;2.30;;;;;;;13.72;65.61;100940.41;5163018;27;20051;-63
2022/11/07 09:06:14;;;;;;;7.13;2.20;;;;;;;13.88;64.85;100955.81;5165741;27;20367;-64
2022/11/07 09:08:42;;;;;;;6.00;1.50;;;;;;;14.10;64.51;100957.84;5160879;27;20043;-63
2022/11/07 09:11:10;;;;;;;10.18;3.05;;;;;;;14.23;63.86;100952.97;5161474;27;20038;-63
2022/11/07 09:13:38;;;;;;;9.55;1.80;;;;;;;14.36;63.18;100948.31;5165010;27;20058;-63
2022/11/07 09:16:06;;;;;;;6.25;2.20;;;;;;;14.46;63.48;100954.75;5159387;27;20110;-63
2022/11/07 09:18:34;;;;;;;5.68;1.88;;;;;;;14.49;63.10;100953.44;5163333;27;20546;-63
2022/11/07 09:21:01;;;;;;;6.78;1.75;;;;;;;14.58;62.75;100965.50;5166857;27;20061;-63
2022/11/07 09:23:31;;;;;;;10.60;1.98;;;;;;;14.63;63.24;100969.09;5162452;27;20046;-63
2022/11/07 09:25:59;;;;;;;5.75;1.67;;;;;;;14.62;62.65;100959.34;5163577;27;20059;-64
2022/11/07 09:28:27;;;;;;;8.05;1.98;;;;;;;14.67;62.88;100969.44;5163604;27;20046;-63
2022/11/07 09:30:55;;;;;;;11.40;2.40;;;;;;;14.71;62.66;100967.88;5159963;27;20071;-63
2022/11/07 09:33:23;;;;;;;12.13;2.97;;;;;;;14.74;62.78;100974.69;5159594;27;20049;-64
2022/11/07 09:35:51;;;;;;;6.07;1.80;;;;;;;14.68;62.64;100968.38;5166216;27;20051;-63
2022/11/07 09:38:19;;;;;;;6.80;1.63;;;;;;;14.74;62.58;100974.69;5165094;27;20042;-64
2022/11/07 09:40:55;;;;;;;6.25;1.92;;;;;;;14.76;62.60;100976.06;5164009;27;20037;-64
2022/11/07 09:43:38;;;;;;;4.95;1.30;;;;;;;14.78;62.75;100971.22;5156082;27;20494;-63
2022/11/07 09:46:18;;;;;;;6.13;1.67;;;;;;;14.78;62.63;100975.81;5159541;27;20050;-64
2022/11/07 09:48:50;;;;;;;5.55;1.85;;;;;;;14.77;62.70;100966.88;5163498;27;20043;-63
2022/11/07 09:51:24;;;;;;;8.25;1.83;;;;;;;14.71;62.97;100975.97;5167151;27;20091;-64
2022/11/07 09:53:59;;;;;;;10.68;2.25;;;;;;;14.55;63.18;100977.63;5164080;27;20046;-63
2022/11/07 09:56:30;;;;;;;6.72;1.98;;;;;;;14.41;64.07;100973.56;5163492;27;20042;-63
2022/11/07 09:59:05;;;;;;;12.13;2.28;;;;;;;14.22;64.42;100967.53;5163764;27;20233;-63
2022/11/07 10:01:40;;;;;;;6.28;1.88;;;;;;;14.04;65.56;100953.41;5158861;27;20063;-63
2022/11/07 10:04:13;;;;;;;10.18;2.00;;;;;;;14.00;65.31;100974.69;5160555;27;20071;-63
2022/11/07 10:07:02;;;;;;;8.40;1.90;;;;;;;13.90;65.77;100986.13;5154363;27;20077;-63
2022/11/07 10:09:40;;;;;;;7.78;2.13;;;;;;;13.86;65.96;100986.88;5152413;27;20063;-63
2022/11/07 10:12:26;;;;;;;7.75;2.45;;;;;;;13.76;66.64;100979.41;5161428;27;20042;-63
2022/11/07 10:15:02;;;;;;;10.20;2.35;;;;;;;13.72;66.34;100978.22;5153871;27;20051;-63
2022/11/07 10:17:36;;;;;;;7.22;1.83;;;;;;;13.68;66.97;100977.88;5163992;27;20046;-63
2022/11/07 10:20:13;;;;;;;9.20;1.83;;;;;;;13.65;67.17;100982.94;5158816;27;20364;-63
2022/11/07 10:23:01;;;;;;;6.50;1.95;;;;;;;13.60;67.36;100986.38;5154766;27;20047;-63
2022/11/07 10:25:35;;;;;;;9.60;1.92;;;;;;;13.59;67.18;100987.41;5163691;27;20510;-63
2022/11/07 10:28:15;;;;;;;8.88;1.98;;;;;;;13.65;67.28;100989.16;5163939;27;20055;-63
2022/11/07 10:30:46;;;;;;;8.75;2.10;;;;;;;13.56;67.41;100993.28;5156115;27;20047;-63
2022/11/07 10:33:26;;;;;;;6.70;1.92;;;;;;;13.54;67.75;101000.00;5162642;27;20061;-63
2022/11/07 10:35:58;;;;;;;5.70;1.83;;;;;;;13.52;67.58;101000.22;5158391;27;20065;-63
2022/11/07 10:38:28;;;;;;;9.30;2.40;;;;;;;13.52;67.92;100997.53;5161735;27;20046;-61
2022/11/07 10:40:56;;;;;;;6.60;1.60;;;;;;;13.58;68.20;100995.75;5157859;27;20054;-63
2022/11/07 10:43:32;;;;;;;6.90;1.63;;;;;;;13.66;67.63;100998.09;5159522;27;20051;-63
2022/11/07 10:46:01;;;;;;;;;;;;;;;14.02;67.12;101013.09;5160977;27;20519;-62
2022/11/07 10:48:29;;;;;;;9.90;2.17;;;;;;;14.10;66.60;101010.03;5161655;27;19925;-63
2022/11/07 10:50:57;;;;;;;7.05;1.75;;;;;;;14.25;66.04;101007.59;5150339;27;20047;-64
2022/11/07 10:53:26;;;;;;;8.25;2.35;;;;;;;14.48;65.08;101003.19;5164191;27;20046;-64
2022/11/07 10:55:55;;;;;;;12.20;2.65;;;;;;;14.68;64.62;101000.81;5162978;27;20047;-63
2022/11/07 10:58:25;;;;;;;6.32;1.85;;;;;;;14.96;63.49;101008.88;5156583;27;20482;-64
2022/11/07 11:01:06;;;;;;;10.00;1.98;;;;;;;15.26;63.50;101005.78;5161701;27;20042;-63
2022/11/07 11:03:40;;;;;;;8.93;2.03;;;;;;;15.26;62.68;101007.69;5161120;27;20046;-62
2022/11/07 11:06:21;;;;;;;8.70;3.00;;;;;;;15.31;62.44;100999.63;5159114;27;20077;-63
2022/11/07 11:08:51;;;;;;;8.63;2.00;;;;;;;15.39;62.14;101006.50;5158790;27;20503;-62
2022/11/07 11:11:27;;;;;;;6.78;2.30;;;;;;;15.36;62.40;101009.72;5161751;27;20047;-65
2022/11/07 11:14:03;;;;;;;9.75;3.17;;;;;;;15.25;62.50;101006.03;5163239;27;20068;-61
2022/11/07 11:16:36;;;;;;;8.20;2.50;;;;;;;14.95;63.07;100996.41;5159423;27;20048;-62
2022/11/07 11:19:05;;;;;;;7.18;1.63;;;;;;;14.83;63.83;100997.56;5158443;27;20050;-61
2022/11/07 11:21:40;;;;;;;9.30;2.35;;;;;;;14.67;64.20;101007.31;5158125;27;20050;-61
2022/11/07 11:24:34;;;;;;;5.38;1.80;;;;;;;14.50;65.29;101003.75;5160633;27;20047;-61
2022/11/07 11:27:09;;;;;;;9.73;1.92;;;;;;;14.40;65.64;100995.44;5145716;27;20053;-61
2022/11/07 11:29:45;;;;;;;5.10;1.95;;;;;;;14.32;65.99;100991.25;5160204;27;20042;-60
2022/11/07 11:32:21;;;;;;;11.15;2.70;;;;;;;14.26;66.09;100984.91;5155138;27;20046;-62
2022/11/07 11:34:57;;;;;;;13.65;4.35;;;;;;;14.28;66.44;100984.69;5158026;27;20053;-62
2022/11/07 11:37:26;;;;;;;8.50;2.03;;;;;;;14.24;66.31;100984.34;5154718;27;20043;-61
2022/11/07 11:40:13;;;;;;;11.55;2.65;;;;;;;14.19;66.49;100980.72;5158101;27;20051;-61
2022/11/07 11:42:49;;;;;;;9.50;2.47;;;;;;;14.14;66.51;100989.56;5153320;27;20730;-61
2022/11/07 11:45:21;;;;;;;7.72;2.60;;;;;;;14.14;67.06;100977.94;4799968;27;10000009;-63
2022/11/07 11:47:58;;;;;;;8.50;2.65;;;;;;;14.10;67.24;100980.28;5152212;27;20053;-58